Time;durP1;ratioP1;P1;durP2;ratioP2;P2;SDS_P1;SDS_P2;PMS_P1;PMS_P2;Temp;Humidity;BMP_temperature;BMP_pressure;BME280_temperature;BME280_humidity;BME280_pressure;Samples;Min_cycle;Max_cycle;Signal;HPM_P1;HPM_P2
2022/03/18 00:01:23;;;;;;;5.13;2.70;;;9.30;99.90;;;;;;5068143;28;20207;-82
2022/03/18 00:03:51;;;;;;;3.53;2.93;;;9.20;99.90;;;;;;5068044;28;20241;-82
2022/03/18 00:06:18;;;;;;;3.83;2.70;;;9.20;99.90;;;;;;5068278;28;20226;-82
2022/03/18 00:08:46;;;;;;;3.97;2.87;;;9.20;99.90;;;;;;5071002;28;20254;-81
2022/03/18 00:11:14;;;;;;;5.77;2.83;;;9.20;99.90;;;;;;5071810;28;20211;-82
2022/03/18 00:13:40;;;;;;;5.67;2.83;;;9.20;99.90;;;;;;5071975;28;20203;-82
2022/03/18 00:16:07;;;;;;;3.47;2.80;;;9.20;99.90;;;;;;5074662;28;20549;-82
2022/03/18 00:18:34;;;;;;;3.90;2.83;;;9.20;99.90;;;;;;5071769;28;20603;-81
2022/03/18 00:21:00;;;;;;;4.27;2.80;;;9.20;99.90;;;;;;5071477;28;20207;-82
2022/03/18 00:23:28;;;;;;;3.80;2.57;;;9.20;99.90;;;;;;5087406;28;20283;-81
2022/03/18 00:25:56;;;;;;;5.90;2.97;;;9.20;99.90;;;;;;5091780;28;20195;-83
2022/03/18 00:28:23;;;;;;;3.13;2.50;;;9.20;99.90;;;;;;5091992;28;20234;-82
2022/03/18 00:30:49;;;;;;;8.00;2.90;;;9.20;99.90;;;;;;5092331;28;20210;-85
2022/03/18 00:33:16;;;;;;;5.33;2.77;;;9.20;99.90;;;;;;5093759;28;20206;-86
2022/03/18 00:35:43;;;;;;;5.63;2.93;;;9.20;99.90;;;;;;5093452;28;20691;-86
2022/03/18 00:38:09;;;;;;;6.87;3.00;;;9.20;99.90;;;;;;5093842;28;20210;-87
2022/03/18 00:40:37;;;;;;;4.57;2.50;;;9.20;99.90;;;;;;5093132;28;20669;-85
2022/03/18 00:43:05;;;;;;;4.37;2.43;;;9.20;99.90;;;;;;5093939;28;20284;-87
2022/03/18 00:45:32;;;;;;;3.13;2.27;;;9.20;99.90;;;;;;5093345;28;20199;-87
2022/03/18 00:53:27;;;;;;;6.00;2.83;;;9.20;99.90;;;;;;5073057;28;20190;-85
2022/03/18 00:55:53;;;;;;;3.83;2.40;;;9.20;99.90;;;;;;5072962;28;20204;-84
2022/03/18 00:58:21;;;;;;;8.03;2.80;;;9.10;99.90;;;;;;5072748;28;20737;-80
2022/03/18 01:00:48;;;;;;;5.97;2.60;;;9.10;99.90;;;;;;5070374;28;20681;-80
2022/03/18 01:03:15;;;;;;;3.97;2.50;;;9.10;99.90;;;;;;5071287;28;20252;-81
2022/03/18 01:05:42;;;;;;;3.07;2.17;;;9.10;99.90;;;;;;5070908;28;20207;-81
2022/03/18 01:08:09;;;;;;;6.00;2.27;;;9.10;99.90;;;;;;5070849;28;20277;-81
2022/03/18 01:10:36;;;;;;;5.33;2.50;;;9.10;99.90;;;;;;5070889;28;20569;-81
2022/03/18 01:13:03;;;;;;;3.63;2.40;;;9.10;99.90;;;;;;5087421;28;20665;-80
2022/03/18 01:15:31;;;;;;;4.97;2.17;;;9.10;99.90;;;;;;5090563;28;20211;-79
2022/03/18 01:17:57;;;;;;;2.30;1.70;;;9.10;99.90;;;;;;5090643;28;20665;-79
2022/03/18 01:20:24;;;;;;;4.80;2.33;;;9.10;99.90;;;;;;5090082;28;20271;-79
2022/03/18 01:22:51;;;;;;;3.70;2.13;;;9.10;99.90;;;;;;5090909;28;20208;-79
2022/03/18 01:25:17;;;;;;;6.43;2.20;;;9.10;99.90;;;;;;5090464;28;20230;-79
2022/03/18 01:27:44;;;;;;;4.20;2.00;;;9.10;99.90;;;;;;5090555;28;20256;-78
2022/03/18 01:30:13;;;;;;;4.93;2.03;;;9.10;99.90;;;;;;5090538;28;20203;-79
2022/03/18 01:32:41;;;;;;;5.63;2.23;;;9.10;99.90;;;;;;5090764;28;20206;-79
2022/03/18 01:35:10;;;;;;;4.53;1.83;;;9.10;99.90;;;;;;5090665;28;20223;-79
2022/03/18 01:37:36;;;;;;;4.57;1.93;;;9.10;99.90;;;;;;5077491;28;20599;-80
2022/03/18 01:40:04;;;;;;;4.33;1.80;;;9.10;99.90;;;;;;5084585;28;20217;-79
2022/03/18 01:42:30;;;;;;;4.33;2.30;;;9.10;99.90;;;;;;5090465;28;20210;-79
2022/03/18 01:44:57;;;;;;;5.87;2.43;;;9.00;99.90;;;;;;5089672;28;20746;-79
2022/03/18 01:47:25;;;;;;;6.73;2.17;;;9.00;99.90;;;;;;5090668;28;20211;-79
2022/03/18 01:49:53;;;;;;;4.10;2.33;;;9.00;99.90;;;;;;5090225;28;20325;-80
2022/03/18 01:52:20;;;;;;;2.07;1.70;;;9.10;99.90;;;;;;5089946;28;20263;-81
2022/03/18 01:54:47;;;;;;;3.90;2.07;;;9.00;99.90;;;;;;5090211;28;20209;-80
2022/03/18 01:57:17;;;;;;;3.53;1.90;;;9.10;99.90;;;;;;5090966;28;20206;-84
2022/03/18 01:59:44;;;;;;;4.73;2.03;;;9.00;99.90;;;;;;5091148;28;20797;-84
2022/03/18 02:02:11;;;;;;;4.90;2.00;;;9.00;99.90;;;;;;5091394;28;20226;-84
2022/03/18 02:04:38;;;;;;;3.67;2.00;;;9.00;99.90;;;;;;5091280;28;20720;-84
2022/03/18 02:07:06;;;;;;;2.40;1.77;;;9.00;99.90;;;;;;5091417;28;20207;-85
2022/03/18 02:09:33;;;;;;;2.33;1.73;;;9.00;99.90;;;;;;5071830;28;20293;-84
2022/03/18 02:12:02;;;;;;;2.97;1.80;;;9.00;99.90;;;;;;5070775;28;20430;-87
2022/03/18 02:14:33;;;;;;;6.47;1.93;;;9.00;99.90;;;;;;5079195;28;20315;-84
2022/03/18 02:17:01;;;;;;;3.87;1.90;;;9.00;99.90;;;;;;5090455;28;20260;-84
2022/03/18 02:19:28;;;;;;;2.50;1.50;;;9.00;99.90;;;;;;5091381;28;20207;-84
2022/03/18 02:21:56;;;;;;;4.50;1.63;;;9.00;99.90;;;;;;5090442;28;20215;-85
2022/03/18 02:24:24;;;;;;;4.10;1.50;;;9.00;99.90;;;;;;5090535;28;20231;-83
2022/03/18 02:26:53;;;;;;;2.70;1.40;;;9.00;99.90;;;;;;5090931;28;20264;-85
2022/03/18 02:29:21;;;;;;;3.47;1.97;;;9.00;99.90;;;;;;5090756;28;20260;-85
2022/03/18 02:31:48;;;;;;;3.53;1.67;;;9.00;99.90;;;;;;5089481;28;20725;-81
2022/03/18 02:34:15;;;;;;;3.00;1.70;;;9.00;99.90;;;;;;5090344;28;20705;-86
2022/03/18 02:36:42;;;;;;;4.30;1.50;;;9.00;99.90;;;;;;5089345;28;20249;-78
2022/03/18 02:39:08;;;;;;;3.47;1.80;;;9.00;99.90;;;;;;5089388;28;20252;-78
2022/03/18 02:41:36;;;;;;;3.57;1.70;;;9.00;99.90;;;;;;5089299;28;20221;-78
2022/03/18 02:44:03;;;;;;;6.20;1.30;;;8.90;99.90;;;;;;5088837;28;20202;-78
2022/03/18 02:46:32;;;;;;;2.23;1.30;;;9.00;99.90;;;;;;5089229;28;20256;-79
2022/03/18 02:49:00;;;;;;;3.53;2.00;;;8.90;99.90;;;;;;5088822;28;20223;-79
2022/03/18 02:51:27;;;;;;;2.93;1.40;;;8.90;99.90;;;;;;5089561;28;20293;-79
2022/03/18 02:53:53;;;;;;;4.83;1.83;;;9.00;99.90;;;;;;5089268;28;20263;-79
2022/03/18 02:56:20;;;;;;;4.70;1.90;;;8.90;99.90;;;;;;5089568;28;20202;-79
2022/03/18 02:58:48;;;;;;;4.03;1.67;;;8.90;99.90;;;;;;5088825;28;20264;-79
2022/03/18 03:01:15;;;;;;;5.30;1.63;;;8.90;99.90;;;;;;5088421;28;20267;-79
2022/03/18 03:03:42;;;;;;;6.33;1.50;;;8.90;99.90;;;;;;5088954;28;20209;-82
2022/03/18 03:08:53;;;;;;;6.10;1.77;;;8.90;99.90;;;;;;5088533;28;20225;-82
2022/03/18 03:11:21;;;;;;;2.77;1.63;;;8.90;99.90;;;;;;5088737;28;20206;-81
2022/03/18 03:13:49;;;;;;;3.93;1.53;;;8.90;99.90;;;;;;5089050;28;20210;-79
2022/03/18 03:16:16;;;;;;;2.23;1.40;;;8.90;99.90;;;;;;5088227;28;20211;-78
2022/03/18 03:18:43;;;;;;;2.23;1.77;;;8.90;99.90;;;;;;5089072;28;20199;-78
2022/03/18 03:21:09;;;;;;;2.40;1.47;;;8.90;99.90;;;;;;5088763;28;20206;-78
2022/03/18 03:23:36;;;;;;;5.23;1.57;;;8.90;99.90;;;;;;5076188;28;20243;-82
2022/03/18 03:26:06;;;;;;;4.00;1.40;;;8.90;99.90;;;;;;5068598;28;20195;-82
2022/03/18 03:28:33;;;;;;;5.20;1.53;;;8.80;99.90;;;;;;5068534;28;20293;-82
2022/03/18 03:31:01;;;;;;;3.60;1.57;;;8.90;99.90;;;;;;5068180;28;20208;-82
2022/03/18 03:33:28;;;;;;;2.63;1.20;;;8.90;99.90;;;;;;5068725;28;20249;-83
2022/03/18 03:35:55;;;;;;;2.87;1.43;;;8.80;99.90;;;;;;5068446;28;20288;-82
2022/03/18 03:38:23;;;;;;;3.60;1.67;;;8.80;99.90;;;;;;5068217;28;20613;-80
2022/03/18 03:40:50;;;;;;;3.90;1.30;;;8.80;99.90;;;;;;5087895;28;20988;-80
2022/03/18 03:43:17;;;;;;;3.37;1.30;;;8.80;99.90;;;;;;5087732;28;20718;-80
2022/03/18 03:45:44;;;;;;;4.97;1.50;;;8.80;99.90;;;;;;5087881;28;20207;-79
2022/03/18 03:48:12;;;;;;;4.83;1.57;;;8.80;99.90;;;;;;5088517;28;20256;-80
2022/03/18 03:50:40;;;;;;;3.93;1.33;;;8.80;99.90;;;;;;5088298;28;20280;-80
2022/03/18 03:53:07;;;;;;;3.47;1.50;;;8.80;99.90;;;;;;5077879;28;20217;-83
2022/03/18 03:55:38;;;;;;;4.03;1.37;;;8.80;99.90;;;;;;5068989;28;20210;-84
2022/03/18 03:58:05;;;;;;;1.30;1.00;;;8.80;99.90;;;;;;5068777;28;20203;-83
2022/03/18 04:00:31;;;;;;;4.03;1.10;;;8.80;99.90;;;;;;5071642;28;20217;-85
2022/03/18 04:02:58;;;;;;;2.37;1.50;;;8.70;99.90;;;;;;5089052;28;20210;-82
2022/03/18 04:05:26;;;;;;;4.33;1.47;;;8.70;99.90;;;;;;5088221;28;20218;-78
2022/03/18 04:07:53;;;;;;;3.60;1.27;;;8.70;99.90;;;;;;5087948;28;20207;-77
2022/03/18 04:10:20;;;;;;;3.40;1.60;;;8.70;99.90;;;;;;5087709;28;20260;-78
2022/03/18 04:12:47;;;;;;;1.17;1.07;;;8.70;99.90;;;;;;5087928;28;20290;-79
2022/03/18 04:15:13;;;;;;;4.57;1.10;;;8.70;99.90;;;;;;5087868;28;20280;-79
2022/03/18 04:17:41;;;;;;;3.57;1.67;;;8.70;99.90;;;;;;5085208;28;20680;-81
2022/03/18 04:20:10;;;;;;;4.40;1.87;;;8.70;99.90;;;;;;5084584;28;20203;-80
2022/03/18 04:22:38;;;;;;;2.60;1.33;;;8.70;99.90;;;;;;5085002;28;20297;-81
2022/03/18 04:25:06;;;;;;;3.17;1.50;;;8.70;99.90;;;;;;5084325;28;20448;-80
2022/03/18 04:27:33;;;;;;;4.60;1.17;;;8.70;99.90;;;;;;5084794;28;20202;-80
2022/03/18 04:30:00;;;;;;;4.33;1.73;;;8.60;99.90;;;;;;5084485;28;20242;-80
2022/03/18 04:32:27;;;;;;;4.90;1.67;;;8.60;99.90;;;;;;5084779;28;20624;-80
2022/03/18 04:34:53;;;;;;;2.03;1.37;;;8.60;99.90;;;;;;5084013;28;20716;-79
2022/03/18 04:37:20;;;;;;;2.53;1.00;;;8.60;99.90;;;;;;5084816;28;20211;-79
2022/03/18 04:39:48;;;;;;;2.20;0.90;;;8.60;99.90;;;;;;5084325;28;20206;-79
2022/03/18 04:42:15;;;;;;;3.83;1.33;;;8.60;99.90;;;;;;5064695;28;20684;-79
2022/03/18 04:44:41;;;;;;;3.53;1.33;;;8.50;99.90;;;;;;5064251;28;20237;-79
2022/03/18 04:47:09;;;;;;;2.87;0.97;;;8.40;99.90;;;;;;5064621;28;20207;-79
2022/03/18 04:49:35;;;;;;;4.47;1.07;;;8.40;99.90;;;;;;5064111;28;20330;-79
2022/03/18 04:52:02;;;;;;;4.40;1.00;;;8.30;99.90;;;;;;5065573;28;20215;-79
2022/03/18 04:54:28;;;;;;;6.47;1.10;;;8.30;99.90;;;;;;5064597;28;20597;-82
2022/03/18 04:59:41;;;;;;;5.80;1.30;;;8.20;99.90;;;;;;5074811;28;20210;-78
2022/03/18 05:02:10;;;;;;;4.07;1.10;;;8.20;99.90;;;;;;5079860;28;20199;-77
2022/03/18 05:04:37;;;;;;;2.50;1.03;;;8.10;99.90;;;;;;5080759;28;20203;-77
2022/03/18 05:07:04;;;;;;;4.93;1.80;;;8.10;99.90;;;;;;5080262;28;20199;-78
2022/03/18 05:09:33;;;;;;;3.27;1.50;;;8.10;99.90;;;;;;5080721;28;20227;-78
2022/03/18 05:12:01;;;;;;;2.23;1.07;;;8.00;99.90;;;;;;5079115;28;20261;-78
2022/03/18 05:14:27;;;;;;;5.50;1.67;;;8.00;99.90;;;;;;5078647;28;20693;-79
2022/03/18 05:16:54;;;;;;;5.57;1.40;;;7.90;99.90;;;;;;5084017;28;20319;-78
2022/03/18 05:19:21;;;;;;;5.53;1.50;;;7.90;99.90;;;;;;5077959;28;20233;-78
2022/03/18 05:21:47;;;;;;;5.30;1.70;;;7.80;99.90;;;;;;5078889;28;20206;-78
2022/03/18 05:24:14;;;;;;;2.53;0.97;;;7.80;99.90;;;;;;5080929;28;20368;-78
2022/03/18 05:26:41;;;;;;;6.43;1.37;;;7.70;99.90;;;;;;5078414;28;20278;-78
2022/03/18 05:29:09;;;;;;;3.30;1.10;;;7.70;99.90;;;;;;5078808;28;20231;-78
2022/03/18 05:31:36;;;;;;;4.47;1.37;;;7.70;99.90;;;;;;5080181;28;20268;-78
2022/03/18 05:34:03;;;;;;;5.40;1.30;;;7.60;99.90;;;;;;5077611;28;20231;-78
2022/03/18 05:36:29;;;;;;;2.90;1.67;;;7.60;99.90;;;;;;5078086;28;20214;-78
2022/03/18 05:38:56;;;;;;;2.73;1.47;;;7.60;99.90;;;;;;5078716;28;20200;-78
2022/03/18 05:41:23;;;;;;;7.33;1.60;;;7.50;99.90;;;;;;5078805;28;20210;-77
2022/03/18 05:43:50;;;;;;;2.47;1.40;;;7.50;99.90;;;;;;5080605;28;20607;-78
2022/03/18 05:46:18;;;;;;;3.03;1.00;;;7.50;99.90;;;;;;5079968;28;20229;-78
2022/03/18 05:48:44;;;;;;;3.03;1.33;;;7.50;99.90;;;;;;5079061;28;20631;-78
2022/03/18 05:51:11;;;;;;;4.83;1.70;;;7.50;99.90;;;;;;5080460;28;20216;-78
2022/03/18 05:53:38;;;;;;;5.33;1.10;;;7.50;99.90;;;;;;5081360;28;20676;-78
2022/03/18 05:58:52;;;;;;;1.67;1.27;;;7.50;99.90;;;;;;5079964;28;20218;-76
2022/03/18 06:01:20;;;;;;;5.23;1.50;;;7.40;99.90;;;;;;5077874;28;20204;-77
2022/03/18 06:03:49;;;;;;;3.43;1.30;;;7.40;99.90;;;;;;5078299;28;20249;-78
2022/03/18 06:06:16;;;;;;;4.97;1.10;;;7.40;99.90;;;;;;5074523;28;20208;-77
2022/03/18 06:14:15;;;;;;;4.20;1.10;;;7.40;99.90;;;;;;5078698;28;20694;-78
2022/03/18 06:16:43;;;;;;;2.20;1.00;;;7.40;99.90;;;;;;5078101;28;20208;-78
2022/03/18 06:19:11;;;;;;;3.57;1.33;;;7.40;99.90;;;;;;5081906;28;20543;-78
2022/03/18 06:21:38;;;;;;;4.53;1.50;;;7.40;99.90;;;;;;5079895;28;20293;-78
2022/03/18 06:24:05;;;;;;;5.17;1.80;;;7.40;99.90;;;;;;5075493;28;20227;-78
2022/03/18 06:26:33;;;;;;;4.17;1.50;;;7.40;99.90;;;;;;5079546;28;20207;-77
2022/03/18 06:29:00;;;;;;;4.73;1.50;;;7.40;99.90;;;;;;5084631;28;20569;-78
2022/03/18 06:31:27;;;;;;;6.27;2.27;;;7.40;99.90;;;;;;5081272;28;20235;-78
2022/03/18 06:33:55;;;;;;;7.90;1.83;;;7.50;99.90;;;;;;5082488;28;20571;-77
2022/03/18 06:36:21;;;;;;;4.53;1.73;;;7.40;99.90;;;;;;5078527;28;20256;-78
2022/03/18 06:38:48;;;;;;;4.90;1.33;;;7.50;99.90;;;;;;5075899;28;20710;-77
2022/03/18 06:41:16;;;;;;;3.23;1.23;;;7.50;99.90;;;;;;5076357;28;20232;-77
2022/03/18 06:43:43;;;;;;;2.57;1.30;;;7.50;99.90;;;;;;5078912;28;20637;-78
2022/03/18 06:46:11;;;;;;;6.50;1.60;;;7.40;99.90;;;;;;5078725;28;20256;-77
2022/03/18 06:48:37;;;;;;;7.43;2.17;;;7.50;99.90;;;;;;5080188;28;20482;-77
2022/03/18 06:51:08;;;;;;;7.87;1.77;;;7.50;99.90;;;;;;5079439;28;20314;-80
2022/03/18 06:53:35;;;;;;;5.67;1.80;;;7.50;99.90;;;;;;5079013;28;20194;-77
2022/03/18 06:56:04;;;;;;;4.03;1.33;;;7.50;99.90;;;;;;5076187;28;20205;-77
2022/03/18 06:58:31;;;;;;;5.03;1.90;;;7.60;99.90;;;;;;5072486;28;20206;-77
2022/03/18 07:00:58;;;;;;;3.27;1.60;;;7.60;99.90;;;;;;5077826;28;20209;-77
2022/03/18 07:03:25;;;;;;;11.27;2.17;;;7.60;99.90;;;;;;5077633;28;20779;-77
2022/03/18 07:05:52;;;;;;;3.67;1.67;;;7.60;99.90;;;;;;5081589;28;20294;-78
2022/03/18 07:08:20;;;;;;;4.90;1.80;;;7.60;99.90;;;;;;5076552;28;20202;-78
2022/03/18 07:10:47;;;;;;;4.77;1.80;;;7.60;99.90;;;;;;5077234;28;20227;-78
2022/03/18 07:13:15;;;;;;;7.60;2.27;;;7.60;99.90;;;;;;5076493;28;20256;-78
2022/03/18 07:15:41;;;;;;;5.67;1.90;;;7.60;99.90;;;;;;5075619;28;20261;-78
2022/03/18 07:18:07;;;;;;;9.07;2.03;;;7.60;99.90;;;;;;5076862;28;20195;-77
2022/03/18 07:20:36;;;;;;;4.53;1.87;;;7.60;99.90;;;;;;5081397;28;20711;-78
2022/03/18 07:23:04;;;;;;;5.47;2.00;;;7.70;99.90;;;;;;5077346;28;20290;-77
2022/03/18 07:25:33;;;;;;;4.37;1.97;;;7.80;99.90;;;;;;5078429;28;20210;-77
2022/03/18 07:28:00;;;;;;;4.47;1.90;;;7.80;99.90;;;;;;5078173;28;20619;-78
2022/03/18 07:30:27;;;;;;;4.87;1.83;;;7.90;99.90;;;;;;5073555;28;20637;-78
2022/03/18 07:32:53;;;;;;;7.70;1.93;;;8.00;99.90;;;;;;5072698;28;20336;-77
2022/03/18 07:35:21;;;;;;;4.53;2.00;;;7.90;99.90;;;;;;5076369;28;20215;-78
2022/03/18 07:37:48;;;;;;;7.23;1.87;;;8.00;99.90;;;;;;5076886;28;20199;-78
2022/03/18 07:40:16;;;;;;;5.40;2.10;;;8.10;99.90;;;;;;5075389;28;20199;-78
2022/03/18 07:42:46;;;;;;;4.53;1.63;;;8.20;99.90;;;;;;5078822;28;20246;-77
2022/03/18 07:45:17;;;;;;;6.50;1.83;;;8.30;99.90;;;;;;5076764;28;20194;-77
2022/03/18 07:47:44;;;;;;;2.87;2.10;;;8.40;99.90;;;;;;5075075;28;20682;-78
2022/03/18 07:50:11;;;;;;;4.00;2.00;;;8.40;99.90;;;;;;5077183;28;20637;-77
2022/03/18 07:52:37;;;;;;;2.50;2.00;;;8.40;99.90;;;;;;5076593;28;20269;-77
2022/03/18 07:55:04;;;;;;;6.57;1.73;;;8.40;99.90;;;;;;5073748;28;20203;-77
2022/03/18 07:57:31;;;;;;;8.40;2.00;;;8.50;99.90;;;;;;5079676;28;20211;-77
2022/03/18 07:59:59;;;;;;;4.77;1.67;;;8.60;99.90;;;;;;5078885;28;20215;-77
2022/03/18 08:02:25;;;;;;;4.07;1.67;;;8.60;99.90;;;;;;5078540;28;20288;-77
2022/03/18 08:04:52;;;;;;;4.57;1.70;;;8.50;99.90;;;;;;5084420;28;20256;-77
2022/03/18 08:07:20;;;;;;;4.83;1.70;;;8.60;99.90;;;;;;5075297;28;20290;-77
2022/03/18 08:09:47;;;;;;;3.87;1.50;;;8.70;99.90;;;;;;5077433;28;20259;-77
2022/03/18 08:12:14;;;;;;;3.67;2.07;;;8.80;99.90;;;;;;5078569;28;20256;-77
2022/03/18 08:14:41;;;;;;;5.37;1.70;;;8.80;99.90;;;;;;5070693;28;20207;-78
2022/03/18 08:17:09;;;;;;;7.07;1.50;;;8.80;99.90;;;;;;5080291;28;20196;-77
2022/03/18 08:19:36;;;;;;;6.17;2.37;;;8.80;99.90;;;;;;5073274;28;20208;-77
2022/03/18 08:22:04;;;;;;;5.37;2.00;;;8.90;99.90;;;;;;5087430;28;20272;-77
2022/03/18 08:24:31;;;;;;;5.27;1.63;;;8.90;99.90;;;;;;5083401;28;20317;-77
2022/03/18 08:26:58;;;;;;;3.53;1.73;;;8.90;99.90;;;;;;5086970;28;20284;-78
2022/03/18 08:29:25;;;;;;;8.13;1.60;;;9.00;99.90;;;;;;5089672;28;20207;-78
2022/03/18 08:31:51;;;;;;;4.20;1.47;;;9.00;99.90;;;;;;5090893;28;20238;-77
2022/03/18 08:34:20;;;;;;;2.77;1.60;;;9.10;99.90;;;;;;5091170;28;20234;-77
2022/03/18 08:36:47;;;;;;;4.03;1.33;;;9.20;99.90;;;;;;5091158;28;20298;-78
2022/03/18 08:39:14;;;;;;;5.43;2.20;;;9.30;99.90;;;;;;5090184;28;20222;-77
2022/03/18 08:41:40;;;;;;;2.63;1.33;;;9.40;99.90;;;;;;5082658;28;20206;-78
2022/03/18 08:44:07;;;;;;;4.70;1.50;;;9.40;99.90;;;;;;5079976;28;20199;-77
2022/03/18 08:46:34;;;;;;;3.67;1.20;;;9.50;99.90;;;;;;5078939;28;20673;-77
2022/03/18 08:49:01;;;;;;;4.67;1.53;;;9.60;99.90;;;;;;5081034;28;20207;-74
2022/03/18 08:51:29;;;;;;;6.37;1.77;;;9.70;99.90;;;;;;5078446;28;20227;-77
2022/03/18 08:53:56;;;;;;;7.60;1.63;;;9.70;99.90;;;;;;5080330;28;20257;-78
2022/03/18 08:56:23;;;;;;;5.50;1.50;;;9.80;99.90;;;;;;5081272;28;20195;-78
2022/03/18 08:58:50;;;;;;;4.53;1.30;;;9.90;99.90;;;;;;5078126;28;20200;-78
2022/03/18 09:01:17;;;;;;;3.80;1.80;;;10.00;99.90;;;;;;5080449;28;20215;-78
2022/03/18 09:03:43;;;;;;;9.73;1.77;;;10.00;99.90;;;;;;5078722;28;20195;-78
2022/03/18 09:06:11;;;;;;;4.97;1.43;;;10.10;99.90;;;;;;5080178;28;20668;-77
2022/03/18 09:08:39;;;;;;;12.13;2.30;;;10.20;99.90;;;;;;5081741;28;20204;-77
2022/03/18 09:11:07;;;;;;;4.50;1.20;;;10.20;99.90;;;;;;5081018;28;20275;-78
2022/03/18 09:13:34;;;;;;;5.33;1.73;;;10.40;99.90;;;;;;5080539;28;20681;-78
2022/03/18 09:16:01;;;;;;;6.60;1.97;;;10.50;99.90;;;;;;5078125;28;20203;-78
2022/03/18 09:18:28;;;;;;;7.40;1.93;;;10.60;99.90;;;;;;5079964;28;20215;-77
2022/03/18 09:20:54;;;;;;;5.50;1.73;;;10.50;99.90;;;;;;5075473;28;20256;-77
2022/03/18 09:23:21;;;;;;;4.47;1.43;;;10.70;99.90;;;;;;5083653;28;20259;-76
2022/03/18 09:25:49;;;;;;;5.70;2.10;;;10.60;99.90;;;;;;5079321;28;20188;-76
2022/03/18 09:28:16;;;;;;;6.40;2.10;;;10.70;99.90;;;;;;5078667;28;20207;-77
2022/03/18 09:30:43;;;;;;;6.60;2.10;;;10.80;99.90;;;;;;5080193;28;20215;-76
2022/03/18 09:33:10;;;;;;;3.93;1.50;;;10.70;99.90;;;;;;5080629;28;20287;-76
2022/03/18 09:35:37;;;;;;;5.67;2.10;;;10.70;99.90;;;;;;5080439;28;20199;-76
2022/03/18 09:38:04;;;;;;;4.00;1.57;;;10.80;99.90;;;;;;5079599;28;20802;-77
2022/03/18 09:40:32;;;;;;;5.20;1.60;;;10.90;99.90;;;;;;5077089;28;20229;-77
2022/03/18 09:43:02;;;;;;;5.37;1.60;;;11.00;99.90;;;;;;5077506;28;20204;-77
2022/03/18 09:45:31;;;;;;;4.97;1.73;;;11.10;99.90;;;;;;5083008;28;20212;-76
2022/03/18 09:47:59;;;;;;;3.60;1.80;;;11.10;99.90;;;;;;5077787;28;20202;-76
2022/03/18 09:50:26;;;;;;;9.63;2.30;;;11.30;99.90;;;;;;5079953;28;20203;-76
2022/03/18 09:52:53;;;;;;;2.53;1.40;;;11.40;99.90;;;;;;5081115;28;20253;-76
2022/03/18 09:55:20;;;;;;;5.50;2.10;;;11.40;99.90;;;;;;5077654;28;20196;-76
2022/03/18 09:57:46;;;;;;;8.73;1.90;;;11.30;99.90;;;;;;5080435;28;20649;-76
2022/03/18 10:00:15;;;;;;;7.03;2.00;;;11.10;99.90;;;;;;5080502;28;20199;-76
2022/03/18 10:02:42;;;;;;;4.83;1.47;;;11.10;99.90;;;;;;5077754;28;20214;-76
2022/03/18 10:05:14;;;;;;;9.37;1.70;;;11.10;99.90;;;;;;5080093;28;20998;-75
2022/03/18 10:07:52;;;;;;;6.70;2.00;;;11.40;99.90;;;;;;5077606;28;20191;-76
2022/03/18 10:10:19;;;;;;;3.73;1.80;;;11.50;99.90;;;;;;5074925;28;20191;-76
2022/03/18 10:12:48;;;;;;;6.37;1.90;;;11.70;99.90;;;;;;5078902;28;20628;-76
2022/03/18 10:15:18;;;;;;;4.80;2.00;;;11.80;99.90;;;;;;5076478;28;20211;-76
2022/03/18 10:17:47;;;;;;;3.77;1.80;;;11.90;99.90;;;;;;5077557;28;20302;-76
2022/03/18 10:20:33;;;;;;;6.07;1.43;;;12.00;99.90;;;;;;5075971;28;20226;-76
2022/03/18 10:23:05;;;;;;;1.83;1.20;;;12.20;99.90;;;;;;5076608;28;20275;-76
2022/03/18 10:25:47;;;;;;;6.27;1.73;;;12.40;99.90;;;;;;5077937;28;20191;-76
2022/03/18 10:28:14;;;;;;;3.90;1.47;;;12.50;99.90;;;;;;5078838;28;20196;-76
2022/03/18 10:30:42;;;;;;;6.23;1.67;;;12.60;99.90;;;;;;5076945;28;20257;-76
2022/03/18 10:33:09;;;;;;;2.83;1.63;;;12.60;99.90;;;;;;5079899;28;20204;-77
2022/03/18 10:38:30;;;;;;;4.47;1.57;;;12.90;99.90;;;;;;5079637;28;20205;-77
2022/03/18 10:40:59;;;;;;;9.13;1.80;;;13.10;99.90;;;;;;5078176;28;20206;-76
2022/03/18 10:43:26;;;;;;;4.47;1.70;;;13.00;99.90;;;;;;5077670;28;20249;-76
2022/03/18 10:46:01;;;;;;;3.23;1.17;;;13.00;99.90;;;;;;5077408;28;20203;-76
2022/03/18 10:48:28;;;;;;;7.33;2.20;;;13.00;99.90;;;;;;5077719;28;20570;-76
2022/03/18 10:51:05;;;;;;;8.33;2.00;;;12.90;99.90;;;;;;5077205;28;20287;-76
2022/03/18 10:53:33;;;;;;;5.53;2.03;;;12.90;99.90;;;;;;5075010;28;20290;-76
2022/03/18 10:56:04;;;;;;;3.80;1.50;;;13.00;99.90;;;;;;5076091;28;20688;-76
2022/03/18 10:58:32;;;;;;;8.73;1.80;;;13.10;99.90;;;;;;5080796;28;20232;-77
2022/03/18 11:01:05;;;;;;;5.37;1.60;;;13.20;99.90;;;;;;5067001;28;20290;-76
2022/03/18 11:03:32;;;;;;;3.33;1.37;;;13.40;99.90;;;;;;5067636;28;20278;-77
2022/03/18 11:06:05;;;;;;;4.30;1.93;;;13.50;99.90;;;;;;5067719;28;20203;-76
2022/03/18 11:08:40;;;;;;;3.43;1.40;;;13.60;99.90;;;;;;5073105;28;20214;-76
2022/03/18 11:11:15;;;;;;;4.20;1.50;;;13.70;99.90;;;;;;5077064;28;20221;-76
2022/03/18 11:13:50;;;;;;;5.17;1.90;;;13.80;99.90;;;;;;5078458;28;20187;-76
2022/03/18 11:16:21;;;;;;;6.10;1.60;;;13.90;99.90;;;;;;5076394;28;20195;-76
2022/03/18 11:18:49;;;;;;;13.83;2.50;;;14.10;99.90;;;;;;5067381;28;20191;-75
2022/03/18 11:21:17;;;;;;;7.33;2.03;;;14.10;99.90;;;;;;5076096;28;20260;-75
2022/03/18 11:23:46;;;;;;;2.90;1.27;;;14.30;99.90;;;;;;5081642;28;20645;-75
2022/03/18 11:26:14;;;;;;;1.67;0.93;;;14.40;99.00;;;;;;5077029;28;20568;-77
2022/03/18 11:28:40;;;;;;;2.80;1.30;;;14.50;98.70;;;;;;5077977;28;20213;-75
2022/03/18 11:31:08;;;;;;;1.93;1.10;;;14.60;98.50;;;;;;5073164;28;20705;-75
2022/03/18 11:33:37;;;;;;;4.97;1.30;;;14.50;97.60;;;;;;5076196;28;20619;-75
2022/03/18 11:36:13;;;;;;;1.97;1.07;;;14.50;98.40;;;;;;5077768;28;20556;-75
2022/03/18 11:39:02;;;;;;;3.43;1.30;;;14.60;98.10;;;;;;5084749;28;20218;-75
2022/03/18 11:41:47;;;;;;;3.20;1.10;;;14.60;98.60;;;;;;5077672;28;20203;-75
2022/03/18 11:44:56;;;;;;;2.30;0.93;;;14.70;98.30;;;;;;5072929;28;20203;-75
2022/03/18 11:47:46;;;;;;;6.73;1.33;;;14.70;98.20;;;;;;5075771;28;20640;-75
2022/03/18 11:50:44;;;;;;;5.97;1.43;;;15.10;98.30;;;;;;5073727;28;20211;-75
2022/03/18 11:53:14;;;;;;;5.33;1.30;;;15.30;97.90;;;;;;5077668;28;20219;-75
2022/03/18 11:55:44;;;;;;;2.40;0.87;;;15.40;97.20;;;;;;5077370;28;20206;-75
2022/03/18 11:58:28;;;;;;;4.00;0.90;;;15.30;96.90;;;;;;5069839;28;20206;-75
2022/03/18 12:00:54;;;;;;;2.50;1.30;;;15.50;95.90;;;;;;5080349;28;20338;-75
2022/03/18 12:03:22;;;;;;;1.73;1.10;;;15.50;95.50;;;;;;5073678;28;20276;-75
2022/03/18 12:05:55;;;;;;;4.37;1.40;;;15.50;95.40;;;;;;5076172;28;20200;-76
2022/03/18 12:08:55;;;;;;;6.47;1.20;;;15.70;95.80;;;;;;5079493;28;20195;-77
2022/03/18 12:11:31;;;;;;;3.03;1.33;;;15.90;95.60;;;;;;5087892;28;20218;-76
2022/03/18 12:13:58;;;;;;;2.83;1.30;;;16.00;95.20;;;;;;5073760;28;20217;-76
2022/03/18 12:16:25;;;;;;;4.70;0.97;;;16.10;95.00;;;;;;5079788;28;20277;-76
2022/03/18 12:18:56;;;;;;;3.03;1.20;;;16.20;94.00;;;;;;5081971;28;20697;-76
2022/03/18 12:21:37;;;;;;;3.03;1.10;;;16.30;94.10;;;;;;5084137;28;20294;-76
2022/03/18 12:24:06;;;;;;;4.57;1.13;;;16.50;93.70;;;;;;5084379;28;20226;-76
2022/03/18 12:26:34;;;;;;;5.77;1.30;;;16.60;93.70;;;;;;5083773;28;20207;-75
2022/03/18 12:29:01;;;;;;;2.13;1.07;;;16.70;92.90;;;;;;5078899;28;20203;-76
2022/03/18 12:31:28;;;;;;;5.27;1.50;;;16.70;92.10;;;;;;5078645;28;20234;-76
2022/03/18 12:33:59;;;;;;;3.40;1.20;;;16.80;92.50;;;;;;5083753;28;20292;-76
2022/03/18 12:36:27;;;;;;;2.23;0.90;;;16.90;91.50;;;;;;5076736;28;20677;-76
2022/03/18 12:39:07;;;;;;;2.77;1.10;;;16.90;90.60;;;;;;5082144;28;20203;-76
2022/03/18 12:41:34;;;;;;;3.17;1.10;;;16.70;90.50;;;;;;5069698;28;20204;-76
2022/03/18 12:44:00;;;;;;;10.87;1.40;;;16.90;90.90;;;;;;5070007;28;20230;-76
2022/03/18 12:46:30;;;;;;;8.27;1.10;;;16.90;90.90;;;;;;5070224;28;20199;-76
2022/03/18 12:48:57;;;;;;;2.13;0.77;;;17.10;90.80;;;;;;5070234;28;20269;-76
2022/03/18 12:51:24;;;;;;;2.60;1.20;;;17.10;90.20;;;;;;5071990;28;20213;-76
2022/03/18 12:53:51;;;;;;;3.63;1.03;;;17.30;89.40;;;;;;5080363;28;20200;-76
2022/03/18 12:56:22;;;;;;;3.77;1.13;;;17.30;86.40;;;;;;5075873;28;21605;-76
2022/03/18 12:58:49;;;;;;;2.33;1.00;;;17.40;86.80;;;;;;5070120;28;20202;-76
2022/03/18 13:01:16;;;;;;;6.23;1.20;;;17.50;86.20;;;;;;5072381;28;20242;-76
2022/03/18 13:03:50;;;;;;;2.43;1.20;;;17.50;85.50;;;;;;5080830;28;20199;-76
2022/03/18 13:06:22;;;;;;;4.70;1.23;;;17.60;85.60;;;;;;5083518;28;20198;-76
2022/03/18 13:08:53;;;;;;;1.60;0.90;;;17.70;83.70;;;;;;5082326;28;20191;-76
2022/03/18 13:11:22;;;;;;;3.37;0.97;;;17.80;82.30;;;;;;5081311;28;20282;-76
2022/03/18 13:13:50;;;;;;;2.43;0.73;;;17.70;81.20;;;;;;5079343;28;20196;-76
2022/03/18 13:16:22;;;;;;;4.00;1.03;;;17.70;81.10;;;;;;5077550;28;20666;-76
2022/03/18 13:18:53;;;;;;;4.17;1.40;;;17.80;81.80;;;;;;5079383;28;20192;-76
2022/03/18 13:21:21;;;;;;;3.87;1.13;;;17.90;81.70;;;;;;5073993;28;20348;-76